sensor_id;sensor_type;location;lat;lon;timestamp;temperature;humidity
42479;DHT22;28110;47.080;9.476;2022-08-19T00:01:21;17.90;99.90
42479;DHT22;28110;47.080;9.476;2022-08-19T00:03:47;17.90;99.90
42479;DHT22;28110;47.080;9.476;2022-08-19T00:06:13;17.80;99.90
42479;DHT22;28110;47.080;9.476;2022-08-19T00:08:39;17.90;99.90
42479;DHT22;28110;47.080;9.476;2022-08-19T00:11:05;17.80;99.90
42479;DHT22;28110;47.080;9.476;2022-08-19T00:13:31;17.80;99.90
42479;DHT22;28110;47.080;9.476;2022-08-19T00:15:57;17.80;99.90
42479;DHT22;28110;47.080;9.476;2022-08-19T00:18:24;17.80;99.90
42479;DHT22;28110;47.080;9.476;2022-08-19T00:20:49;17.80;99.90
42479;DHT22;28110;47.080;9.476;2022-08-19T00:23:15;17.80;99.90
42479;DHT22;28110;47.080;9.476;2022-08-19T00:25:41;17.80;99.90
42479;DHT22;28110;47.080;9.476;2022-08-19T00:28:06;17.80;99.90
42479;DHT22;28110;47.080;9.476;2022-08-19T00:30:32;17.90;99.90
42479;DHT22;28110;47.080;9.476;2022-08-19T00:32:58;17.80;99.90
42479;DHT22;28110;47.080;9.476;2022-08-19T00:35:24;17.80;99.90
42479;DHT22;28110;47.080;9.476;2022-08-19T00:37:52;17.90;99.90
42479;DHT22;28110;47.080;9.476;2022-08-19T00:40:18;17.80;99.90
42479;DHT22;28110;47.080;9.476;2022-08-19T00:42:44;17.80;99.90
42479;DHT22;28110;47.080;9.476;2022-08-19T00:45:19;17.80;99.90
42479;DHT22;28110;47.080;9.476;2022-08-19T00:47:45;17.80;99.90
42479;DHT22;28110;47.080;9.476;2022-08-19T00:50:14;17.80;99.90
42479;DHT22;28110;47.080;9.476;2022-08-19T00:52:43;17.80;99.90
42479;DHT22;28110;47.080;9.476;2022-08-19T00:55:13;17.70;99.90
42479;DHT22;28110;47.080;9.476;2022-08-19T00:57:43;17.70;99.90
42479;DHT22;28110;47.080;9.476;2022-08-19T01:00:13;17.70;99.90
42479;DHT22;28110;47.080;9.476;2022-08-19T01:02:41;17.70;99.90
42479;DHT22;28110;47.080;9.476;2022-08-19T01:05:10;17.70;99.90
42479;DHT22;28110;47.080;9.476;2022-08-19T01:07:39;17.70;99.90
42479;DHT22;28110;47.080;9.476;2022-08-19T01:10:08;17.60;99.90
42479;DHT22;28110;47.080;9.476;2022-08-19T01:12:34;17.60;99.90
42479;DHT22;28110;47.080;9.476;2022-08-19T01:15:00;17.60;99.90
42479;DHT22;28110;47.080;9.476;2022-08-19T01:17:27;17.60;99.90
42479;DHT22;28110;47.080;9.476;2022-08-19T01:19:53;17.60;99.90
42479;DHT22;28110;47.080;9.476;2022-08-19T01:22:27;17.60;99.90
42479;DHT22;28110;47.080;9.476;2022-08-19T01:24:53;17.50;99.90
42479;DHT22;28110;47.080;9.476;2022-08-19T01:27:18;17.50;99.90
42479;DHT22;28110;47.080;9.476;2022-08-19T01:29:44;17.50;99.90
42479;DHT22;28110;47.080;9.476;2022-08-19T01:32:15;17.50;99.90
42479;DHT22;28110;47.080;9.476;2022-08-19T01:34:41;17.50;99.90
42479;DHT22;28110;47.080;9.476;2022-08-19T01:37:09;17.50;99.90
42479;DHT22;28110;47.080;9.476;2022-08-19T01:39:37;17.50;99.90
42479;DHT22;28110;47.080;9.476;2022-08-19T01:42:03;17.40;99.90
42479;DHT22;28110;47.080;9.476;2022-08-19T01:44:30;17.40;99.90
42479;DHT22;28110;47.080;9.476;2022-08-19T01:46:56;17.40;99.90
42479;DHT22;28110;47.080;9.476;2022-08-19T01:49:23;17.40;99.90
42479;DHT22;28110;47.080;9.476;2022-08-19T01:51:50;17.40;99.90
42479;DHT22;28110;47.080;9.476;2022-08-19T01:54:17;17.30;99.90
42479;DHT22;28110;47.080;9.476;2022-08-19T01:56:43;17.20;99.90
42479;DHT22;28110;47.080;9.476;2022-08-19T01:59:16;17.30;99.90
42479;DHT22;28110;47.080;9.476;2022-08-19T02:01:43;17.20;99.90
42479;DHT22;28110;47.080;9.476;2022-08-19T02:04:08;17.20;99.90
42479;DHT22;28110;47.080;9.476;2022-08-19T02:06:35;17.20;99.90
42479;DHT22;28110;47.080;9.476;2022-08-19T02:09:01;17.30;99.90
42479;DHT22;28110;47.080;9.476;2022-08-19T02:11:32;17.30;99.90
42479;DHT22;28110;47.080;9.476;2022-08-19T02:14:00;17.30;99.90
42479;DHT22;28110;47.080;9.476;2022-08-19T02:16:27;17.30;99.90
42479;DHT22;28110;47.080;9.476;2022-08-19T02:18:53;17.30;99.90
42479;DHT22;28110;47.080;9.476;2022-08-19T02:21:22;17.30;99.90
42479;DHT22;28110;47.080;9.476;2022-08-19T02:23:49;17.30;99.90
42479;DHT22;28110;47.080;9.476;2022-08-19T02:26:16;17.30;99.90
42479;DHT22;28110;47.080;9.476;2022-08-19T02:28:42;17.30;99.90
42479;DHT22;28110;47.080;9.476;2022-08-19T02:31:20;17.40;99.90
42479;DHT22;28110;47.080;9.476;2022-08-19T02:33:47;17.30;99.90
42479;DHT22;28110;47.080;9.476;2022-08-19T02:36:14;17.40;99.90
42479;DHT22;28110;47.080;9.476;2022-08-19T02:38:40;17.30;99.90
42479;DHT22;28110;47.080;9.476;2022-08-19T02:41:20;17.30;99.90
42479;DHT22;28110;47.080;9.476;2022-08-19T02:43:46;17.30;99.90
42479;DHT22;28110;47.080;9.476;2022-08-19T02:46:17;17.30;99.90
42479;DHT22;28110;47.080;9.476;2022-08-19T02:48:53;17.30;99.90
42479;DHT22;28110;47.080;9.476;2022-08-19T02:51:26;17.30;99.90
42479;DHT22;28110;47.080;9.476;2022-08-19T02:53:52;17.20;99.90
42479;DHT22;28110;47.080;9.476;2022-08-19T02:56:19;17.30;99.90
42479;DHT22;28110;47.080;9.476;2022-08-19T02:58:45;17.30;99.90
42479;DHT22;28110;47.080;9.476;2022-08-19T03:01:11;17.30;99.90
42479;DHT22;28110;47.080;9.476;2022-08-19T03:03:44;17.30;99.90
42479;DHT22;28110;47.080;9.476;2022-08-19T03:06:12;17.40;99.90
42479;DHT22;28110;47.080;9.476;2022-08-19T03:08:40;17.40;99.90
42479;DHT22;28110;47.080;9.476;2022-08-19T03:11:06;17.30;99.90
42479;DHT22;28110;47.080;9.476;2022-08-19T03:13:37;17.40;99.90
42479;DHT22;28110;47.080;9.476;2022-08-19T03:16:04;17.40;99.90
42479;DHT22;28110;47.080;9.476;2022-08-19T03:18:30;17.40;99.90
42479;DHT22;28110;47.080;9.476;2022-08-19T03:20:56;17.40;99.90
42479;DHT22;28110;47.080;9.476;2022-08-19T03:23:23;17.40;99.90
42479;DHT22;28110;47.080;9.476;2022-08-19T03:25:50;17.30;99.90
42479;DHT22;28110;47.080;9.476;2022-08-19T03:28:16;17.40;99.90
42479;DHT22;28110;47.080;9.476;2022-08-19T03:30:53;17.30;99.90
42479;DHT22;28110;47.080;9.476;2022-08-19T03:33:21;17.30;99.90
42479;DHT22;28110;47.080;9.476;2022-08-19T03:35:47;17.40;99.90
42479;DHT22;28110;47.080;9.476;2022-08-19T03:38:12;17.30;99.90
42479;DHT22;28110;47.080;9.476;2022-08-19T03:40:38;17.40;99.90
42479;DHT22;28110;47.080;9.476;2022-08-19T03:43:03;17.40;99.90
42479;DHT22;28110;47.080;9.476;2022-08-19T03:45:29;17.50;99.90
42479;DHT22;28110;47.080;9.476;2022-08-19T03:47:55;17.50;99.90
42479;DHT22;28110;47.080;9.476;2022-08-19T03:50:21;17.50;99.90
42479;DHT22;28110;47.080;9.476;2022-08-19T03:52:50;17.50;99.90
42479;DHT22;28110;47.080;9.476;2022-08-19T03:55:17;17.50;99.90
42479;DHT22;28110;47.080;9.476;2022-08-19T03:57:42;17.50;99.90
42479;DHT22;28110;47.080;9.476;2022-08-19T04:00:09;17.60;99.90
42479;DHT22;28110;47.080;9.476;2022-08-19T04:02:34;17.50;99.90
42479;DHT22;28110;47.080;9.476;2022-08-19T04:05:00;17.60;99.90
42479;DHT22;28110;47.080;9.476;2022-08-19T04:07:25;17.60;99.90
42479;DHT22;28110;47.080;9.476;2022-08-19T04:09:51;17.60;99.90
42479;DHT22;28110;47.080;9.476;2022-08-19T04:12:17;17.60;99.90
42479;DHT22;28110;47.080;9.476;2022-08-19T04:14:42;17.60;99.90
42479;DHT22;28110;47.080;9.476;2022-08-19T04:17:08;17.60;99.90
42479;DHT22;28110;47.080;9.476;2022-08-19T04:19:35;17.60;99.90
42479;DHT22;28110;47.080;9.476;2022-08-19T04:22:01;17.60;99.90
42479;DHT22;28110;47.080;9.476;2022-08-19T04:24:27;17.60;99.90
42479;DHT22;28110;47.080;9.476;2022-08-19T04:26:53;17.50;99.90
42479;DHT22;28110;47.080;9.476;2022-08-19T04:29:25;17.50;99.90
42479;DHT22;28110;47.080;9.476;2022-08-19T04:31:53;17.50;99.90
42479;DHT22;28110;47.080;9.476;2022-08-19T04:34:21;17.50;99.90
42479;DHT22;28110;47.080;9.476;2022-08-19T04:36:48;17.60;99.90
42479;DHT22;28110;47.080;9.476;2022-08-19T04:39:18;17.60;99.90
42479;DHT22;28110;47.080;9.476;2022-08-19T04:41:45;17.60;99.90
42479;DHT22;28110;47.080;9.476;2022-08-19T04:44:31;17.70;99.90
42479;DHT22;28110;47.080;9.476;2022-08-19T04:46:57;17.60;99.90
42479;DHT22;28110;47.080;9.476;2022-08-19T04:49:22;17.60;99.90
42479;DHT22;28110;47.080;9.476;2022-08-19T04:51:49;17.60;99.90
42479;DHT22;28110;47.080;9.476;2022-08-19T04:54:17;17.60;99.90
42479;DHT22;28110;47.080;9.476;2022-08-19T04:56:45;17.50;99.90
42479;DHT22;28110;47.080;9.476;2022-08-19T04:59:11;17.50;99.90
42479;DHT22;28110;47.080;9.476;2022-08-19T05:01:37;17.60;99.90
42479;DHT22;28110;47.080;9.476;2022-08-19T05:04:05;17.60;99.90
42479;DHT22;28110;47.080;9.476;2022-08-19T05:06:31;17.60;99.90
42479;DHT22;28110;47.080;9.476;2022-08-19T05:09:00;17.50;99.90
42479;DHT22;28110;47.080;9.476;2022-08-19T05:11:29;17.50;99.90
42479;DHT22;28110;47.080;9.476;2022-08-19T05:13:55;17.50;99.90
42479;DHT22;28110;47.080;9.476;2022-08-19T05:16:22;17.50;99.90
42479;DHT22;28110;47.080;9.476;2022-08-19T05:18:49;17.50;99.90
42479;DHT22;28110;47.080;9.476;2022-08-19T05:21:34;17.50;99.90
42479;DHT22;28110;47.080;9.476;2022-08-19T05:24:19;17.60;99.90
42479;DHT22;28110;47.080;9.476;2022-08-19T05:26:48;17.60;99.90
42479;DHT22;28110;47.080;9.476;2022-08-19T05:29:17;17.60;99.90
42479;DHT22;28110;47.080;9.476;2022-08-19T05:31:45;17.60;99.90
42479;DHT22;28110;47.080;9.476;2022-08-19T05:34:11;17.70;99.90
42479;DHT22;28110;47.080;9.476;2022-08-19T05:36:39;17.70;99.90
42479;DHT22;28110;47.080;9.476;2022-08-19T05:39:12;17.70;99.90
42479;DHT22;28110;47.080;9.476;2022-08-19T05:41:42;17.70;99.90
42479;DHT22;28110;47.080;9.476;2022-08-19T05:44:08;17.70;99.90
42479;DHT22;28110;47.080;9.476;2022-08-19T05:46:36;17.70;99.90
42479;DHT22;28110;47.080;9.476;2022-08-19T05:49:07;17.60;99.90
42479;DHT22;28110;47.080;9.476;2022-08-19T05:51:34;17.60;99.90
42479;DHT22;28110;47.080;9.476;2022-08-19T05:54:02;17.60;99.90
42479;DHT22;28110;47.080;9.476;2022-08-19T05:56:28;17.70;99.90
42479;DHT22;28110;47.080;9.476;2022-08-19T05:58:56;17.70;99.90
42479;DHT22;28110;47.080;9.476;2022-08-19T06:01:24;17.70;99.90
42479;DHT22;28110;47.080;9.476;2022-08-19T06:03:50;17.70;99.90
42479;DHT22;28110;47.080;9.476;2022-08-19T06:06:16;17.80;99.90
42479;DHT22;28110;47.080;9.476;2022-08-19T06:08:42;17.80;99.90
42479;DHT22;28110;47.080;9.476;2022-08-19T06:11:33;17.80;99.90
42479;DHT22;28110;47.080;9.476;2022-08-19T06:14:04;17.80;99.90
42479;DHT22;28110;47.080;9.476;2022-08-19T06:16:30;17.90;99.90
42479;DHT22;28110;47.080;9.476;2022-08-19T06:19:00;17.90;99.90
42479;DHT22;28110;47.080;9.476;2022-08-19T06:21:27;17.90;99.90
42479;DHT22;28110;47.080;9.476;2022-08-19T06:23:54;17.90;99.90
42479;DHT22;28110;47.080;9.476;2022-08-19T06:26:21;18.00;99.90
42479;DHT22;28110;47.080;9.476;2022-08-19T06:28:47;17.90;99.90
42479;DHT22;28110;47.080;9.476;2022-08-19T06:31:25;17.90;99.90
42479;DHT22;28110;47.080;9.476;2022-08-19T06:33:51;18.00;99.90
42479;DHT22;28110;47.080;9.476;2022-08-19T06:36:22;18.00;99.90
42479;DHT22;28110;47.080;9.476;2022-08-19T06:38:51;17.90;99.90
42479;DHT22;28110;47.080;9.476;2022-08-19T06:41:16;17.80;99.90
42479;DHT22;28110;47.080;9.476;2022-08-19T06:43:42;17.90;99.90
42479;DHT22;28110;47.080;9.476;2022-08-19T06:46:13;17.90;99.90
42479;DHT22;28110;47.080;9.476;2022-08-19T06:48:39;17.90;99.90
42479;DHT22;28110;47.080;9.476;2022-08-19T06:51:05;17.90;99.90
42479;DHT22;28110;47.080;9.476;2022-08-19T06:53:31;17.90;99.90
42479;DHT22;28110;47.080;9.476;2022-08-19T06:55:57;18.00;99.90
42479;DHT22;28110;47.080;9.476;2022-08-19T06:58:31;17.90;99.90
42479;DHT22;28110;47.080;9.476;2022-08-19T07:00:59;18.00;99.90
42479;DHT22;28110;47.080;9.476;2022-08-19T07:03:27;18.00;99.90
42479;DHT22;28110;47.080;9.476;2022-08-19T07:05:53;17.90;99.90
42479;DHT22;28110;47.080;9.476;2022-08-19T07:08:19;18.00;99.90
42479;DHT22;28110;47.080;9.476;2022-08-19T07:10:45;18.00;99.90
42479;DHT22;28110;47.080;9.476;2022-08-19T07:13:11;17.90;99.90
42479;DHT22;28110;47.080;9.476;2022-08-19T07:15:36;17.90;99.90
42479;DHT22;28110;47.080;9.476;2022-08-19T07:18:02;17.90;99.90
42479;DHT22;28110;47.080;9.476;2022-08-19T07:20:28;17.90;99.90
42479;DHT22;28110;47.080;9.476;2022-08-19T07:22:54;17.90;99.90
42479;DHT22;28110;47.080;9.476;2022-08-19T07:25:19;17.90;99.90
42479;DHT22;28110;47.080;9.476;2022-08-19T07:27:49;17.90;99.90
42479;DHT22;28110;47.080;9.476;2022-08-19T07:30:14;17.90;99.90
42479;DHT22;28110;47.080;9.476;2022-08-19T07:32:40;17.90;99.90
42479;DHT22;28110;47.080;9.476;2022-08-19T07:35:08;17.90;99.90
42479;DHT22;28110;47.080;9.476;2022-08-19T07:37:34;17.90;99.90
42479;DHT22;28110;47.080;9.476;2022-08-19T07:40:04;17.90;99.90
42479;DHT22;28110;47.080;9.476;2022-08-19T07:42:30;17.90;99.90
42479;DHT22;28110;47.080;9.476;2022-08-19T07:44:55;18.00;99.90
42479;DHT22;28110;47.080;9.476;2022-08-19T07:47:21;17.90;99.90
42479;DHT22;28110;47.080;9.476;2022-08-19T07:49:47;17.90;99.90
42479;DHT22;28110;47.080;9.476;2022-08-19T07:52:14;17.90;99.90
42479;DHT22;28110;47.080;9.476;2022-08-19T07:54:40;17.90;99.90
42479;DHT22;28110;47.080;9.476;2022-08-19T07:57:07;18.00;99.90
42479;DHT22;28110;47.080;9.476;2022-08-19T07:59:33;18.00;99.90
42479;DHT22;28110;47.080;9.476;2022-08-19T08:01:59;18.00;99.90
42479;DHT22;28110;47.080;9.476;2022-08-19T08:04:26;18.00;99.90
42479;DHT22;28110;47.080;9.476;2022-08-19T08:07:10;18.10;99.90
42479;DHT22;28110;47.080;9.476;2022-08-19T08:09:54;18.10;99.90
42479;DHT22;28110;47.080;9.476;2022-08-19T08:12:27;18.10;99.90
42479;DHT22;28110;47.080;9.476;2022-08-19T08:14:55;18.10;99.90
42479;DHT22;28110;47.080;9.476;2022-08-19T08:17:25;18.10;99.90
42479;DHT22;28110;47.080;9.476;2022-08-19T08:19:51;18.10;99.90
42479;DHT22;28110;47.080;9.476;2022-08-19T08:22:18;18.10;99.90
42479;DHT22;28110;47.080;9.476;2022-08-19T08:25:06;18.10;99.90
42479;DHT22;28110;47.080;9.476;2022-08-19T08:27:35;18.10;99.90
42479;DHT22;28110;47.080;9.476;2022-08-19T08:30:02;18.10;99.90
42479;DHT22;28110;47.080;9.476;2022-08-19T08:32:29;18.10;99.90
42479;DHT22;28110;47.080;9.476;2022-08-19T08:34:55;18.10;99.90
42479;DHT22;28110;47.080;9.476;2022-08-19T08:37:21;18.10;99.90
42479;DHT22;28110;47.080;9.476;2022-08-19T08:39:47;18.00;99.90
42479;DHT22;28110;47.080;9.476;2022-08-19T08:42:24;18.00;99.90
42479;DHT22;28110;47.080;9.476;2022-08-19T08:45:00;18.00;99.90
42479;DHT22;28110;47.080;9.476;2022-08-19T08:47:35;18.00;99.90
42479;DHT22;28110;47.080;9.476;2022-08-19T08:50:06;18.10;99.90
42479;DHT22;28110;47.080;9.476;2022-08-19T08:52:36;18.10;99.90
42479;DHT22;28110;47.080;9.476;2022-08-19T08:55:10;18.10;99.90
42479;DHT22;28110;47.080;9.476;2022-08-19T08:57:38;18.10;99.90
42479;DHT22;28110;47.080;9.476;2022-08-19T09:00:10;18.10;99.90
42479;DHT22;28110;47.080;9.476;2022-08-19T09:02:37;18.20;99.90
42479;DHT22;28110;47.080;9.476;2022-08-19T09:05:03;18.20;99.90
42479;DHT22;28110;47.080;9.476;2022-08-19T09:07:42;18.20;99.90
42479;DHT22;28110;47.080;9.476;2022-08-19T09:15:40;18.20;99.90
42479;DHT22;28110;47.080;9.476;2022-08-19T09:18:08;18.30;99.90
42479;DHT22;28110;47.080;9.476;2022-08-19T09:20:34;18.30;99.90
42479;DHT22;28110;47.080;9.476;2022-08-19T09:23:00;18.30;99.90
42479;DHT22;28110;47.080;9.476;2022-08-19T09:25:25;18.30;99.90
42479;DHT22;28110;47.080;9.476;2022-08-19T09:27:52;18.30;99.90
42479;DHT22;28110;47.080;9.476;2022-08-19T09:30:25;18.30;99.90
42479;DHT22;28110;47.080;9.476;2022-08-19T09:32:51;18.30;99.90
42479;DHT22;28110;47.080;9.476;2022-08-19T09:35:22;18.20;99.90
42479;DHT22;28110;47.080;9.476;2022-08-19T09:37:49;18.20;99.90
42479;DHT22;28110;47.080;9.476;2022-08-19T09:40:16;18.20;99.90
42479;DHT22;28110;47.080;9.476;2022-08-19T09:42:43;18.20;99.90
42479;DHT22;28110;47.080;9.476;2022-08-19T09:45:16;18.20;99.90
42479;DHT22;28110;47.080;9.476;2022-08-19T09:47:43;18.20;99.90
42479;DHT22;28110;47.080;9.476;2022-08-19T09:50:11;18.20;99.90
42479;DHT22;28110;47.080;9.476;2022-08-19T09:52:37;18.20;99.90
42479;DHT22;28110;47.080;9.476;2022-08-19T09:55:07;18.20;99.90
42479;DHT22;28110;47.080;9.476;2022-08-19T09:57:33;18.20;99.90
42479;DHT22;28110;47.080;9.476;2022-08-19T09:59:59;18.20;99.90
42479;DHT22;28110;47.080;9.476;2022-08-19T10:02:24;18.20;99.90
42479;DHT22;28110;47.080;9.476;2022-08-19T10:04:50;18.10;99.90
42479;DHT22;28110;47.080;9.476;2022-08-19T10:07:35;18.20;99.90
42479;DHT22;28110;47.080;9.476;2022-08-19T10:10:02;18.20;99.90
42479;DHT22;28110;47.080;9.476;2022-08-19T10:12:28;18.20;99.90
42479;DHT22;28110;47.080;9.476;2022-08-19T10:14:53;18.30;99.90
42479;DHT22;28110;47.080;9.476;2022-08-19T10:17:19;18.30;99.90
42479;DHT22;28110;47.080;9.476;2022-08-19T10:19:45;18.30;99.90
42479;DHT22;28110;47.080;9.476;2022-08-19T10:22:12;18.30;99.90
42479;DHT22;28110;47.080;9.476;2022-08-19T10:24:39;18.30;99.90
42479;DHT22;28110;47.080;9.476;2022-08-19T10:27:04;18.20;99.90
42479;DHT22;28110;47.080;9.476;2022-08-19T10:29:31;18.20;99.90
42479;DHT22;28110;47.080;9.476;2022-08-19T10:31:58;18.20;99.90
42479;DHT22;28110;47.080;9.476;2022-08-19T10:34:26;18.20;99.90
42479;DHT22;28110;47.080;9.476;2022-08-19T10:36:52;18.10;99.90
42479;DHT22;28110;47.080;9.476;2022-08-19T10:39:17;18.10;99.90
42479;DHT22;28110;47.080;9.476;2022-08-19T10:41:43;18.20;99.90
42479;DHT22;28110;47.080;9.476;2022-08-19T10:44:11;18.10;99.90
42479;DHT22;28110;47.080;9.476;2022-08-19T10:46:42;18.10;99.90
42479;DHT22;28110;47.080;9.476;2022-08-19T10:49:09;18.10;99.90
42479;DHT22;28110;47.080;9.476;2022-08-19T10:51:35;18.00;99.90
42479;DHT22;28110;47.080;9.476;2022-08-19T10:54:20;18.00;99.90
42479;DHT22;28110;47.080;9.476;2022-08-19T10:56:46;17.90;99.90
42479;DHT22;28110;47.080;9.476;2022-08-19T10:59:25;17.90;99.90
42479;DHT22;28110;47.080;9.476;2022-08-19T11:01:54;17.90;99.90
42479;DHT22;28110;47.080;9.476;2022-08-19T11:04:23;17.80;99.90
42479;DHT22;28110;47.080;9.476;2022-08-19T11:06:49;17.90;99.90
42479;DHT22;28110;47.080;9.476;2022-08-19T11:09:19;17.70;99.90
42479;DHT22;28110;47.080;9.476;2022-08-19T11:11:44;17.70;99.90
42479;DHT22;28110;47.080;9.476;2022-08-19T11:14:13;17.60;99.90
42479;DHT22;28110;47.080;9.476;2022-08-19T11:16:40;17.50;99.90
42479;DHT22;28110;47.080;9.476;2022-08-19T11:19:08;17.50;99.90
42479;DHT22;28110;47.080;9.476;2022-08-19T11:21:37;17.40;99.90
42479;DHT22;28110;47.080;9.476;2022-08-19T11:24:15;17.30;99.90
42479;DHT22;28110;47.080;9.476;2022-08-19T11:26:44;17.30;99.90
42479;DHT22;28110;47.080;9.476;2022-08-19T11:29:11;17.30;99.90
42479;DHT22;28110;47.080;9.476;2022-08-19T11:31:40;17.30;99.90
42479;DHT22;28110;47.080;9.476;2022-08-19T11:34:09;17.30;99.90
42479;DHT22;28110;47.080;9.476;2022-08-19T11:36:37;17.20;99.90
42479;DHT22;28110;47.080;9.476;2022-08-19T11:39:05;17.20;99.90
42479;DHT22;28110;47.080;9.476;2022-08-19T11:41:31;17.20;99.90
42479;DHT22;28110;47.080;9.476;2022-08-19T11:43:56;17.10;99.90
42479;DHT22;28110;47.080;9.476;2022-08-19T11:46:24;17.10;99.90
42479;DHT22;28110;47.080;9.476;2022-08-19T11:48:50;17.10;99.90
42479;DHT22;28110;47.080;9.476;2022-08-19T11:51:21;17.10;99.90
42479;DHT22;28110;47.080;9.476;2022-08-19T11:53:48;17.10;99.90
42479;DHT22;28110;47.080;9.476;2022-08-19T11:56:14;17.10;99.90
42479;DHT22;28110;47.080;9.476;2022-08-19T11:58:40;17.00;99.90
42479;DHT22;28110;47.080;9.476;2022-08-19T12:01:10;17.00;99.90
42479;DHT22;28110;47.080;9.476;2022-08-19T12:03:36;17.00;99.90
42479;DHT22;28110;47.080;9.476;2022-08-19T12:06:07;17.00;99.90
42479;DHT22;28110;47.080;9.476;2022-08-19T12:08:33;17.00;99.90
42479;DHT22;28110;47.080;9.476;2022-08-19T12:10:59;17.00;99.90
42479;DHT22;28110;47.080;9.476;2022-08-19T12:13:29;17.00;99.90
42479;DHT22;28110;47.080;9.476;2022-08-19T12:15:55;17.00;99.90
42479;DHT22;28110;47.080;9.476;2022-08-19T12:18:21;17.00;99.90
42479;DHT22;28110;47.080;9.476;2022-08-19T12:20:46;17.00;99.90
42479;DHT22;28110;47.080;9.476;2022-08-19T12:23:13;17.10;99.90
42479;DHT22;28110;47.080;9.476;2022-08-19T12:25:45;17.00;99.90
42479;DHT22;28110;47.080;9.476;2022-08-19T12:28:24;17.00;99.90
42479;DHT22;28110;47.080;9.476;2022-08-19T12:30:50;17.00;99.90
42479;DHT22;28110;47.080;9.476;2022-08-19T12:33:17;17.00;99.90
42479;DHT22;28110;47.080;9.476;2022-08-19T12:35:44;17.00;99.90
42479;DHT22;28110;47.080;9.476;2022-08-19T12:38:12;16.90;99.90
42479;DHT22;28110;47.080;9.476;2022-08-19T12:40:38;16.90;99.90
42479;DHT22;28110;47.080;9.476;2022-08-19T12:43:06;16.90;99.90
42479;DHT22;28110;47.080;9.476;2022-08-19T12:45:31;16.90;99.90
42479;DHT22;28110;47.080;9.476;2022-08-19T12:47:57;16.90;99.90
42479;DHT22;28110;47.080;9.476;2022-08-19T12:50:23;16.90;99.90
42479;DHT22;28110;47.080;9.476;2022-08-19T12:52:48;16.90;99.90
42479;DHT22;28110;47.080;9.476;2022-08-19T12:55:14;16.90;99.90
42479;DHT22;28110;47.080;9.476;2022-08-19T12:57:40;16.80;99.90
42479;DHT22;28110;47.080;9.476;2022-08-19T13:00:09;16.80;99.90
42479;DHT22;28110;47.080;9.476;2022-08-19T13:02:37;16.80;99.90
42479;DHT22;28110;47.080;9.476;2022-08-19T13:05:04;16.80;99.90
42479;DHT22;28110;47.080;9.476;2022-08-19T13:07:32;16.70;99.90
42479;DHT22;28110;47.080;9.476;2022-08-19T13:09:57;16.90;99.90
42479;DHT22;28110;47.080;9.476;2022-08-19T13:12:23;16.90;99.90
42479;DHT22;28110;47.080;9.476;2022-08-19T13:14:55;16.90;99.90
42479;DHT22;28110;47.080;9.476;2022-08-19T13:17:20;16.80;99.90
42479;DHT22;28110;47.080;9.476;2022-08-19T13:19:46;16.80;99.90
42479;DHT22;28110;47.080;9.476;2022-08-19T13:22:11;16.80;99.90
42479;DHT22;28110;47.080;9.476;2022-08-19T13:24:37;16.70;99.90
42479;DHT22;28110;47.080;9.476;2022-08-19T13:27:04;16.70;99.90
42479;DHT22;28110;47.080;9.476;2022-08-19T13:29:30;16.70;99.90
42479;DHT22;28110;47.080;9.476;2022-08-19T13:32:14;16.70;99.90
42479;DHT22;28110;47.080;9.476;2022-08-19T13:34:59;16.80;99.90
42479;DHT22;28110;47.080;9.476;2022-08-19T13:37:24;16.80;99.90
42479;DHT22;28110;47.080;9.476;2022-08-19T13:42:41;16.70;99.90
42479;DHT22;28110;47.080;9.476;2022-08-19T13:45:07;16.70;99.90
42479;DHT22;28110;47.080;9.476;2022-08-19T13:47:33;16.70;99.90
42479;DHT22;28110;47.080;9.476;2022-08-19T13:50:12;16.70;99.90
42479;DHT22;28110;47.080;9.476;2022-08-19T13:52:39;16.80;99.90
42479;DHT22;28110;47.080;9.476;2022-08-19T13:55:06;16.80;99.90
42479;DHT22;28110;47.080;9.476;2022-08-19T13:57:32;16.80;99.90
42479;DHT22;28110;47.080;9.476;2022-08-19T13:59:57;16.90;99.90
42479;DHT22;28110;47.080;9.476;2022-08-19T14:02:23;17.00;99.90
42479;DHT22;28110;47.080;9.476;2022-08-19T14:04:49;16.90;99.90
42479;DHT22;28110;47.080;9.476;2022-08-19T14:07:14;17.00;99.90
42479;DHT22;28110;47.080;9.476;2022-08-19T14:09:40;17.00;99.90
42479;DHT22;28110;47.080;9.476;2022-08-19T14:12:06;17.00;99.90
42479;DHT22;28110;47.080;9.476;2022-08-19T14:14:31;17.00;99.90
42479;DHT22;28110;47.080;9.476;2022-08-19T14:16:57;17.00;99.90
42479;DHT22;28110;47.080;9.476;2022-08-19T14:19:23;17.00;99.90
42479;DHT22;28110;47.080;9.476;2022-08-19T14:21:48;17.00;99.90
42479;DHT22;28110;47.080;9.476;2022-08-19T14:24:14;17.00;99.90
42479;DHT22;28110;47.080;9.476;2022-08-19T14:26:39;17.00;99.90
42479;DHT22;28110;47.080;9.476;2022-08-19T14:29:05;17.00;99.90
42479;DHT22;28110;47.080;9.476;2022-08-19T14:31:31;17.10;99.90
42479;DHT22;28110;47.080;9.476;2022-08-19T14:33:56;17.10;99.90
42479;DHT22;28110;47.080;9.476;2022-08-19T14:36:22;17.10;99.90
42479;DHT22;28110;47.080;9.476;2022-08-19T14:38:47;17.10;99.90
42479;DHT22;28110;47.080;9.476;2022-08-19T14:41:23;17.10;99.90
42479;DHT22;28110;47.080;9.476;2022-08-19T14:43:50;17.20;99.90
42479;DHT22;28110;47.080;9.476;2022-08-19T14:46:18;17.20;99.90
42479;DHT22;28110;47.080;9.476;2022-08-19T14:48:46;17.20;99.90
42479;DHT22;28110;47.080;9.476;2022-08-19T14:51:12;17.20;99.90
42479;DHT22;28110;47.080;9.476;2022-08-19T14:53:38;17.20;99.90
42479;DHT22;28110;47.080;9.476;2022-08-19T14:56:08;17.20;99.90
42479;DHT22;28110;47.080;9.476;2022-08-19T14:58:34;17.20;99.90
42479;DHT22;28110;47.080;9.476;2022-08-19T15:01:00;17.20;99.90
42479;DHT22;28110;47.080;9.476;2022-08-19T15:03:27;17.30;99.90
42479;DHT22;28110;47.080;9.476;2022-08-19T15:05:53;17.30;99.90
42479;DHT22;28110;47.080;9.476;2022-08-19T15:08:19;17.30;99.90
42479;DHT22;28110;47.080;9.476;2022-08-19T15:10:45;17.30;99.90
42479;DHT22;28110;47.080;9.476;2022-08-19T15:13:12;17.30;99.90
42479;DHT22;28110;47.080;9.476;2022-08-19T15:15:37;17.30;99.90
42479;DHT22;28110;47.080;9.476;2022-08-19T15:18:04;17.30;99.90
42479;DHT22;28110;47.080;9.476;2022-08-19T15:20:30;17.40;99.90
42479;DHT22;28110;47.080;9.476;2022-08-19T15:22:56;17.40;99.90
42479;DHT22;28110;47.080;9.476;2022-08-19T15:25:22;17.40;99.90
42479;DHT22;28110;47.080;9.476;2022-08-19T15:27:48;17.40;99.90
42479;DHT22;28110;47.080;9.476;2022-08-19T15:30:23;17.40;99.90
42479;DHT22;28110;47.080;9.476;2022-08-19T15:32:49;17.40;99.90
42479;DHT22;28110;47.080;9.476;2022-08-19T15:35:15;17.40;99.90
42479;DHT22;28110;47.080;9.476;2022-08-19T15:37:40;17.40;99.90
42479;DHT22;28110;47.080;9.476;2022-08-19T15:40:07;17.30;99.90
42479;DHT22;28110;47.080;9.476;2022-08-19T15:42:35;17.30;99.90